createdAt,value
2018-10-16T04:30:28.186Z,8.30
2018-10-16T04:32:56.111Z,8.33
2018-10-16T04:35:24.060Z,10.13
2018-10-16T04:37:52.016Z,9.60
2018-10-16T04:40:20.017Z,9.27
2018-10-16T04:42:47.560Z,10.13
2018-10-16T04:45:15.539Z,9.40
2018-10-16T04:47:43.569Z,10.10
2018-10-16T04:50:11.586Z,9.67
2018-10-16T04:52:39.785Z,9.40
2018-10-16T04:55:07.970Z,10.00
2018-10-16T04:57:36.151Z,9.87
2018-10-16T05:00:04.783Z,9.80
2018-10-16T05:02:32.723Z,9.87
2018-10-16T05:05:00.648Z,10.23
2018-10-16T05:07:28.588Z,9.63
2018-10-16T05:09:56.552Z,10.20
2018-10-16T05:12:24.520Z,10.33
2018-10-16T05:14:52.488Z,11.10
2018-10-16T05:17:20.405Z,10.17
2018-10-16T05:19:48.432Z,12.27
2018-10-16T05:22:16.400Z,12.10
2018-10-16T05:24:44.433Z,11.47
2018-10-16T05:27:12.336Z,9.57
2018-10-16T05:29:40.273Z,11.30
2018-10-16T05:32:08.193Z,11.37
2018-10-16T05:34:36.107Z,11.00
2018-10-16T05:37:04.520Z,11.73
2018-10-16T05:39:32.492Z,11.53
2018-10-16T05:42:01.329Z,11.50
2018-10-16T05:44:29.340Z,11.60
2018-10-16T05:46:57.252Z,11.50
2018-10-16T05:49:25.188Z,11.80
2018-10-16T05:51:53.431Z,13.10
2018-10-16T05:54:21.486Z,12.43
2018-10-16T05:56:49.470Z,11.73
2018-10-16T05:59:18.395Z,12.40
2018-10-16T06:01:46.384Z,12.83
2018-10-16T06:04:14.327Z,11.90
2018-10-16T06:09:37.000Z,12.30
2018-10-16T06:12:04.972Z,13.40
2018-10-16T06:14:32.849Z,11.40
2018-10-16T06:17:00.792Z,10.80
2018-10-16T06:19:28.715Z,11.93
2018-10-16T06:21:56.632Z,11.20
2018-10-16T06:24:24.664Z,11.50
2018-10-16T06:26:52.580Z,11.63
2018-10-16T06:29:20.513Z,12.50
2018-10-16T06:31:48.520Z,11.60
2018-10-16T06:34:16.492Z,11.30
2018-10-16T06:36:44.417Z,11.70
2018-10-16T06:39:12.345Z,11.80
2018-10-16T06:41:40.339Z,12.07
2018-10-16T06:44:08.600Z,12.90
2018-10-16T15:02:50.769Z,7.60
2018-10-16T15:05:18.752Z,6.40
2018-10-16T15:07:46.778Z,6.40
2018-10-16T15:10:14.840Z,7.37
2018-10-16T15:12:42.752Z,6.47
2018-10-16T15:15:10.711Z,6.00
2018-10-16T15:17:39.578Z,6.30
2018-10-16T15:20:08.256Z,6.57
2018-10-16T15:22:36.163Z,7.00
2018-10-16T15:25:04.972Z,6.30
2018-10-16T15:27:32.891Z,6.43
2018-10-16T15:30:00.816Z,7.50
2018-10-16T15:32:28.757Z,7.03
2018-10-16T15:34:56.719Z,5.90
2018-10-16T15:37:24.672Z,5.90
2018-10-16T15:39:52.688Z,6.43
2018-10-16T15:42:21.017Z,6.53
2018-10-16T15:44:49.016Z,7.10
2018-10-16T15:47:16.939Z,5.53
2018-10-16T15:49:44.960Z,6.87
2018-10-16T15:52:13.113Z,6.80
2018-10-16T15:54:41.000Z,6.13
2018-10-16T15:57:08.916Z,6.00
2018-10-16T15:59:37.010Z,8.70
2018-10-16T16:02:05.201Z,5.90
2018-10-16T16:04:33.036Z,5.53
2018-10-16T16:07:01.033Z,6.27
2018-10-16T16:09:28.990Z,5.30
2018-10-16T16:11:57.095Z,6.57
2018-10-16T16:14:25.441Z,6.00
2018-10-16T16:16:53.443Z,6.10
2018-10-16T16:19:21.371Z,5.30
2018-10-16T16:21:49.381Z,6.47
2018-10-16T16:24:17.546Z,5.97
2018-10-16T16:26:45.491Z,5.97
2018-10-16T16:29:13.464Z,6.30
2018-10-16T16:31:41.490Z,5.90
2018-10-16T16:34:09.447Z,6.20
2018-10-16T16:36:37.516Z,6.33
2018-10-16T16:39:07.458Z,5.97
2018-10-16T16:41:35.461Z,6.43
2018-10-16T16:44:03.110Z,5.37
2018-10-16T16:46:30.985Z,6.00
2018-10-16T16:48:58.916Z,5.60
2018-10-16T16:51:26.864Z,6.60
2018-10-16T16:53:54.784Z,5.60
2018-10-16T16:56:22.708Z,6.50
2018-10-16T16:58:50.681Z,5.70
2018-10-16T17:01:18.637Z,6.07
2018-10-16T17:03:46.573Z,6.57
2018-10-16T17:06:14.580Z,5.80
2018-10-16T17:08:42.527Z,6.20
2018-10-16T17:11:10.448Z,6.87
2018-10-16T17:13:38.512Z,6.33
2018-10-16T17:16:06.537Z,6.03
2018-10-16T17:18:34.595Z,5.90
2018-10-16T17:21:02.944Z,7.37
2018-10-16T17:23:30.850Z,5.77
2018-10-16T17:25:58.847Z,5.80
2018-10-16T17:28:26.753Z,5.50
2018-10-16T17:30:54.627Z,5.20
2018-10-16T17:33:22.657Z,5.20
2018-10-16T17:35:50.588Z,6.43
2018-10-16T17:38:18.513Z,6.37
2018-10-16T17:40:46.463Z,6.00
2018-10-16T17:43:14.598Z,5.80
2018-10-16T17:45:43.520Z,5.57
2018-10-16T17:48:11.517Z,5.50
2018-10-16T17:50:39.383Z,6.40
2018-10-16T17:53:07.322Z,6.03
2018-10-16T17:55:35.260Z,6.60
2018-10-16T17:58:03.309Z,6.30
2018-10-16T18:00:31.308Z,6.83
2018-10-16T18:02:59.338Z,6.10
2018-10-16T18:05:27.300Z,6.23
2018-10-16T18:07:55.264Z,5.70
2018-10-16T18:10:23.179Z,6.20
2018-10-16T18:12:51.156Z,7.03
2018-10-16T18:15:19.126Z,6.87
2018-10-16T18:17:47.085Z,7.60
2018-10-16T18:20:15.959Z,6.60
2018-10-16T18:22:44.336Z,7.00
2018-10-16T18:25:12.652Z,6.30
2018-10-16T18:27:41.212Z,7.37
2018-10-16T18:30:09.257Z,6.53
2018-10-16T18:32:37.220Z,6.20
2018-10-16T18:35:05.596Z,6.40
2018-10-16T18:37:33.602Z,7.10
2018-10-16T18:40:01.745Z,7.00
2018-10-16T18:42:29.659Z,6.20
2018-10-16T18:44:57.703Z,6.80
2018-10-16T18:47:25.223Z,6.33
2018-10-16T18:49:53.212Z,7.43
2018-10-16T18:52:21.230Z,7.70
2018-10-16T18:54:49.200Z,6.77
2018-10-16T18:57:17.201Z,7.13
2018-10-16T18:59:45.243Z,7.70
2018-10-16T19:02:13.255Z,7.30
2018-10-16T19:04:41.284Z,7.70
2018-10-16T19:07:09.257Z,7.10
2018-10-16T19:09:37.169Z,6.90
2018-10-16T19:12:05.119Z,5.97
2018-10-16T19:14:33.498Z,7.60
2018-10-16T19:17:01.496Z,7.57
2018-10-16T19:19:29.432Z,7.03
2018-10-16T19:21:57.429Z,6.93
2018-10-16T19:24:25.340Z,8.03
2018-10-16T19:26:53.359Z,7.17
2018-10-16T19:29:21.256Z,7.37
2018-10-16T19:31:49.293Z,8.03
2018-10-16T19:34:17.227Z,7.00
2018-10-16T19:36:45.233Z,7.93
2018-10-16T19:39:13.285Z,8.30
2018-10-16T19:41:41.545Z,8.50
2018-10-16T19:44:09.550Z,8.13
2018-10-16T19:46:37.504Z,7.70
2018-10-16T19:49:05.661Z,8.13
2018-10-16T19:51:33.731Z,7.77
2018-10-16T19:54:01.713Z,7.57
2018-10-16T19:56:31.104Z,8.27
2018-10-16T19:58:59.177Z,8.03
2018-10-16T20:01:27.249Z,7.50
2018-10-16T20:03:55.332Z,7.87
2018-10-16T20:06:23.237Z,7.00
2018-10-16T20:08:51.155Z,7.70
2018-10-16T20:11:19.168Z,8.40
2018-10-16T20:13:47.141Z,9.50
2018-10-16T20:16:14.596Z,7.13
2018-10-16T20:18:42.532Z,7.83
2018-10-16T20:21:10.595Z,8.07
2018-10-16T20:23:38.620Z,7.40
2018-10-16T20:26:06.740Z,8.50
2018-10-16T20:28:34.758Z,8.40
2018-10-16T20:31:03.011Z,8.60
2018-10-16T20:33:31.021Z,8.97
2018-10-16T20:35:59.039Z,8.30
2018-10-16T20:38:26.974Z,8.20
2018-10-16T20:40:54.919Z,7.67
2018-10-16T20:43:22.871Z,8.00
2018-10-16T20:45:50.344Z,7.27
2018-10-16T20:48:18.394Z,7.67
2018-10-16T20:50:46.299Z,8.20
2018-10-16T20:53:14.244Z,8.40
2018-10-16T20:55:42.231Z,8.50
2018-10-16T20:58:10.182Z,8.57
2018-10-16T21:00:38.880Z,7.77
2018-10-16T21:03:06.815Z,7.70
2018-10-16T21:05:34.909Z,7.97
2018-10-16T21:08:02.780Z,7.93
2018-10-16T21:10:30.754Z,7.70
2018-10-16T21:12:58.784Z,8.83
2018-10-16T21:15:26.600Z,8.20
2018-10-16T21:17:54.536Z,8.50
2018-10-16T21:20:22.497Z,9.30
2018-10-16T21:22:50.437Z,8.70
2018-10-16T21:25:18.515Z,9.90
2018-10-16T21:27:46.388Z,9.00
2018-10-16T21:30:14.470Z,8.67
2018-10-16T21:32:42.496Z,8.80
2018-10-16T21:35:10.464Z,9.23
2018-10-16T21:37:38.327Z,9.40
2018-10-16T21:40:06.495Z,9.73
2018-10-16T21:42:34.451Z,9.50
2018-10-16T21:45:02.439Z,10.33
2018-10-16T21:47:31.613Z,9.57
2018-10-16T21:49:59.595Z,9.80
2018-10-16T21:52:27.570Z,12.00
2018-10-16T21:54:55.566Z,10.07
2018-10-16T21:57:23.542Z,10.30
2018-10-16T21:59:51.477Z,10.50
2018-10-16T22:02:25.008Z,9.70
2018-10-16T22:04:53.631Z,9.33
2018-10-16T22:07:21.521Z,9.37
2018-10-16T22:09:49.486Z,11.77
2018-10-16T22:12:17.422Z,10.67
2018-10-16T22:14:45.336Z,9.90
2018-10-16T22:17:13.434Z,10.67
2018-10-16T22:19:41.371Z,10.17
2018-10-16T22:22:09.305Z,9.80
2018-10-16T22:24:38.368Z,10.20
2018-10-16T22:27:06.308Z,10.80
2018-10-16T22:29:34.320Z,9.50
2018-10-16T22:32:02.151Z,9.40
2018-10-16T22:34:30.052Z,9.20
2018-10-16T22:36:58.025Z,9.43
2018-10-16T22:39:25.912Z,9.83
2018-10-16T22:41:53.907Z,8.73
2018-10-16T22:44:21.835Z,8.00
